Time;durP1;ratioP1;P1;durP2;ratioP2;P2;SDS_P1;SDS_P2;PMS_P1;PMS_P2;Temp;Humidity;BMP_temperature;BMP_pressure;BME280_temperature;BME280_humidity;BME280_pressure;Samples;Min_cycle;Max_cycle;Signal;HPM_P1;HPM_P2
2023/02/06 05:30:55;;;;;;;13.73;3.83;;;3.80;77.40;;;;;;5625366;23;20056;-80
2023/02/06 05:33:22;;;;;;;7.55;4.15;;;3.80;77.50;;;;;;4926393;29;21645;-79
2023/02/06 05:35:48;;;;;;;7.07;3.03;;;3.80;77.70;;;;;;4917528;29;20032;-79
2023/02/06 05:38:13;;;;;;;7.22;3.30;;;3.80;77.70;;;;;;4921648;29;20039;-79
2023/02/06 05:40:39;;;;;;;14.52;3.88;;;3.70;77.80;;;;;;4919385;29;20054;-79
2023/02/06 05:43:05;;;;;;;12.07;3.53;;;3.70;77.70;;;;;;4920540;29;20387;-79
2023/02/06 05:45:30;;;;;;;13.98;3.55;;;3.70;77.90;;;;;;4921576;29;20399;-79
2023/02/06 05:47:56;;;;;;;8.57;2.67;;;3.70;77.80;;;;;;4921072;29;20024;-79
2023/02/06 05:50:22;;;;;;;5.53;3.28;;;3.70;77.60;;;;;;4921671;29;20047;-89
2023/02/06 05:52:48;;;;;;;5.72;2.72;;;3.80;77.60;;;;;;4919977;29;20071;-76
2023/02/06 05:55:15;;;;;;;4.10;2.60;;;3.80;77.50;;;;;;4921447;29;20495;-79
2023/02/06 05:57:41;;;;;;;14.93;4.00;;;3.80;77.30;;;;;;4905684;29;20024;-78
2023/02/06 06:00:13;;;;;;;7.30;2.90;;;3.80;77.10;;;;;;4902006;29;20419;-79
2023/02/06 06:02:39;;;;;;;3.13;2.30;;;3.70;77.20;;;;;;4920287;29;20020;-80
2023/02/06 06:05:05;;;;;;;11.05;3.00;;;3.80;77.20;;;;;;4930880;29;20064;-81
2023/02/06 06:07:31;;;;;;;4.45;2.72;;;3.70;77.40;;;;;;4930257;29;20031;-77
2023/02/06 06:09:57;;;;;;;9.75;3.35;;;3.80;77.30;;;;;;4921462;29;20107;-78
2023/02/06 06:12:23;;;;;;;11.20;2.85;;;3.70;77.30;;;;;;4910758;29;20550;-77
2023/02/06 06:14:48;;;;;;;5.50;3.35;;;3.70;77.70;;;;;;4902486;29;20568;-82
2023/02/06 06:17:14;;;;;;;5.65;2.75;;;3.70;77.60;;;;;;4902252;29;20029;-76
2023/02/06 06:19:40;;;;;;;6.88;3.78;;;3.80;77.60;;;;;;4920518;29;20020;-77
2023/02/06 06:22:06;;;;;;;11.45;2.80;;;3.80;77.50;;;;;;4940191;29;20032;-80
2023/02/06 06:24:33;;;;;;;11.43;2.63;;;3.80;77.40;;;;;;4940621;29;20110;-82
2023/02/06 06:26:58;;;;;;;5.18;2.35;;;3.90;77.40;;;;;;4921737;29;20031;-76
2023/02/06 06:29:25;;;;;;;10.00;2.75;;;3.90;77.20;;;;;;4920644;29;20036;-76
2023/02/06 06:31:51;;;;;;;6.70;2.45;;;3.90;77.10;;;;;;4919804;29;20051;-74
2023/02/06 06:34:19;;;;;;;10.90;2.80;;;3.80;77.30;;;;;;4914984;29;20090;-77
2023/02/06 06:36:45;;;;;;;11.30;3.03;;;3.80;77.50;;;;;;4909218;29;20039;-78
2023/02/06 06:39:11;;;;;;;14.82;3.17;;;3.80;77.60;;;;;;4929867;29;20432;-78
2023/02/06 06:41:36;;;;;;;9.20;3.25;;;3.80;77.60;;;;;;4919637;29;20044;-76
2023/02/06 06:44:02;;;;;;;3.20;2.90;;;3.70;77.70;;;;;;4919299;29;20558;-80
2023/02/06 06:46:28;;;;;;;7.38;2.75;;;3.60;78.00;;;;;;4916214;29;20056;-77
2023/02/06 06:48:54;;;;;;;2.72;2.17;;;3.60;78.10;;;;;;4919959;29;20031;-78
2023/02/06 06:51:20;;;;;;;5.15;3.55;;;3.70;78.00;;;;;;4905495;29;20173;-78
2023/02/06 06:53:46;;;;;;;8.52;3.60;;;3.70;78.20;;;;;;4901718;29;20101;-76
2023/02/06 06:56:13;;;;;;;6.18;2.55;;;3.70;78.10;;;;;;4917344;29;20032;-77
2023/02/06 06:58:39;;;;;;;7.38;2.90;;;3.70;78.10;;;;;;4918462;29;20040;-76
2023/02/06 07:01:05;;;;;;;11.13;3.35;;;3.70;78.00;;;;;;4927926;29;20039;-76
2023/02/06 07:03:31;;;;;;;13.85;2.88;;;3.70;78.10;;;;;;4935940;29;20028;-76
2023/02/06 07:05:57;;;;;;;9.40;3.85;;;3.80;77.90;;;;;;4920963;29;20103;-75
2023/02/06 07:08:25;;;;;;;7.80;2.65;;;3.70;78.10;;;;;;4920027;29;20062;-77
2023/02/06 07:10:51;;;;;;;6.30;3.78;;;3.70;78.20;;;;;;4926140;29;20066;-76
2023/02/06 07:13:16;;;;;;;5.25;3.38;;;3.70;78.20;;;;;;4931765;29;20028;-77
2023/02/06 07:15:42;;;;;;;13.82;4.43;;;3.70;78.30;;;;;;4909356;29;20036;-77
2023/02/06 07:18:08;;;;;;;7.10;3.30;;;3.70;78.30;;;;;;4920212;29;20039;-76
2023/02/06 07:20:36;;;;;;;10.38;3.90;;;3.60;78.40;;;;;;4917978;29;20036;-77
2023/02/06 07:23:05;;;;;;;11.30;3.72;;;3.60;78.60;;;;;;4918554;29;20032;-76
2023/02/06 07:25:33;;;;;;;16.05;2.92;;;3.70;78.70;;;;;;4915444;29;20024;-76
2023/02/06 07:27:59;;;;;;;7.22;3.63;;;3.70;78.60;;;;;;4916487;29;20051;-77
2023/02/06 07:30:24;;;;;;;8.75;3.25;;;3.70;78.50;;;;;;4917262;29;20040;-77
2023/02/06 07:32:50;;;;;;;23.25;5.93;;;3.70;78.40;;;;;;4917978;29;20032;-77
2023/02/06 07:35:16;;;;;;;10.68;4.20;;;3.80;78.20;;;;;;4918224;29;20527;-76
2023/02/06 07:37:42;;;;;;;19.60;3.95;;;3.90;78.20;;;;;;4918833;29;20026;-77
2023/02/06 07:40:08;;;;;;;13.10;3.30;;;3.80;78.20;;;;;;4917748;29;20028;-77
2023/02/06 07:42:34;;;;;;;6.68;4.05;;;3.80;78.20;;;;;;4918545;29;20040;-77
2023/02/06 07:45:00;;;;;;;13.50;4.25;;;3.80;78.30;;;;;;4912959;29;20092;-77
2023/02/06 07:47:25;;;;;;;9.18;3.63;;;3.80;78.50;;;;;;4917247;29;20483;-77
2023/02/06 07:49:51;;;;;;;8.50;3.50;;;3.80;78.50;;;;;;4912229;29;20065;-77
2023/02/06 07:52:19;;;;;;;10.52;4.05;;;3.80;78.30;;;;;;4923299;29;20072;-77
2023/02/06 07:54:44;;;;;;;6.82;3.20;;;3.90;78.20;;;;;;4916027;29;20388;-78
2023/02/06 07:57:10;;;;;;;15.82;5.15;;;3.90;78.10;;;;;;4916759;29;20040;-77
2023/02/06 07:59:35;;;;;;;8.98;4.82;;;4.00;77.90;;;;;;4917104;29;20064;-77
2023/02/06 08:02:01;;;;;;;9.75;4.65;;;4.00;77.90;;;;;;4924142;29;20063;-77
2023/02/06 08:04:33;;;;;;;7.68;3.55;;;4.00;77.70;;;;;;4919298;29;20475;-77
2023/02/06 08:06:59;;;;;;;6.47;3.35;;;4.10;77.60;;;;;;4918117;29;20032;-77
2023/02/06 08:09:25;;;;;;;14.57;4.07;;;4.10;77.40;;;;;;4919586;29;20031;-78
2023/02/06 08:11:51;;;;;;;11.45;4.80;;;4.10;77.40;;;;;;4919172;29;20040;-77
2023/02/06 08:14:18;;;;;;;10.57;5.18;;;4.20;77.50;;;;;;4919255;29;20111;-77
2023/02/06 08:16:43;;;;;;;18.67;5.38;;;4.20;77.50;;;;;;4917569;29;20139;-77
2023/02/06 08:19:11;;;;;;;14.55;5.15;;;4.10;77.70;;;;;;4918018;29;20028;-78
2023/02/06 08:21:37;;;;;;;11.88;4.80;;;4.00;77.90;;;;;;4917587;29;20040;-77
2023/02/06 08:24:03;;;;;;;14.35;4.97;;;4.00;77.90;;;;;;4917647;29;20103;-77
2023/02/06 08:26:30;;;;;;;12.52;6.05;;;4.10;78.00;;;;;;4917461;29;20114;-77
2023/02/06 08:28:56;;;;;;;7.32;5.20;;;4.20;77.90;;;;;;4919388;29;20047;-77
2023/02/06 08:31:28;;;;;;;11.13;4.25;;;4.20;77.80;;;;;;4918017;29;20051;-77
2023/02/06 08:33:54;;;;;;;15.52;5.20;;;4.30;77.50;;;;;;4917686;29;20028;-77
2023/02/06 08:36:21;;;;;;;11.60;4.45;;;4.40;77.20;;;;;;4917691;29;20028;-77
2023/02/06 08:38:48;;;;;;;15.60;4.40;;;4.40;77.40;;;;;;4918733;29;20028;-77
2023/02/06 08:41:23;;;;;;;9.50;4.53;;;4.50;77.10;;;;;;4917474;29;20079;-77
2023/02/06 08:43:51;;;;;;;11.50;4.68;;;4.60;77.00;;;;;;4918595;29;20029;-76
2023/02/06 08:46:18;;;;;;;7.47;4.85;;;4.60;77.00;;;;;;4917724;29;20507;-76
2023/02/06 08:48:44;;;;;;;23.38;5.80;;;4.60;76.90;;;;;;4917901;29;20028;-76
2023/02/06 08:51:11;;;;;;;21.40;5.53;;;4.70;77.00;;;;;;4913306;29;20484;-76
2023/02/06 08:53:37;;;;;;;11.00;5.30;;;4.70;76.80;;;;;;4914866;29;20417;-77
2023/02/06 08:56:06;;;;;;;17.00;5.85;;;4.80;77.00;;;;;;4917708;29;20028;-76
2023/02/06 08:58:32;;;;;;;9.18;4.93;;;5.20;76.30;;;;;;4919107;29;20187;-76
2023/02/06 09:00:58;;;;;;;16.08;5.80;;;5.60;75.40;;;;;;4918801;29;20534;-77
2023/02/06 09:03:26;;;;;;;17.92;5.95;;;5.70;74.70;;;;;;4916965;29;20447;-76
2023/02/06 09:05:58;;;;;;;21.85;5.53;;;5.60;74.90;;;;;;4917303;29;20051;-76
2023/02/06 09:08:24;;;;;;;14.02;5.05;;;5.60;74.90;;;;;;4917611;29;20028;-76
2023/02/06 09:10:50;;;;;;;12.15;4.82;;;5.70;74.70;;;;;;4923996;29;20038;-76
2023/02/06 09:13:16;;;;;;;9.75;4.80;;;5.70;75.00;;;;;;4937846;29;20407;-76
2023/02/06 09:15:42;;;;;;;13.35;6.22;;;5.80;75.10;;;;;;4930575;29;20087;-76
2023/02/06 09:18:08;;;;;;;13.27;4.68;;;5.90;74.80;;;;;;4917268;29;20167;-76
2023/02/06 09:20:34;;;;;;;14.65;6.18;;;6.00;74.80;;;;;;4918937;29;20791;-76
2023/02/06 09:23:00;;;;;;;12.57;5.93;;;6.20;74.80;;;;;;4918669;29;20028;-77
2023/02/06 09:25:25;;;;;;;15.07;6.13;;;6.40;74.60;;;;;;4917175;29;20725;-76
2023/02/06 09:27:51;;;;;;;9.27;4.70;;;6.50;74.10;;;;;;4918970;29;20370;-76
2023/02/06 09:30:17;;;;;;;14.13;5.55;;;6.70;73.50;;;;;;4918024;29;20073;-77
2023/02/06 09:32:42;;;;;;;13.68;7.97;;;7.10;72.30;;;;;;4917657;29;20062;-77
2023/02/06 09:35:08;;;;;;;16.50;5.95;;;7.20;72.20;;;;;;4902861;29;20108;-77
2023/02/06 09:37:35;;;;;;;13.63;5.35;;;7.50;71.10;;;;;;4920032;29;20140;-77
2023/02/06 09:40:00;;;;;;;9.73;5.25;;;8.00;70.20;;;;;;4918054;29;20044;-77
2023/02/06 09:42:34;;;;;;;14.48;5.38;;;8.30;69.40;;;;;;4902982;29;20156;-77
2023/02/06 09:45:21;;;;;;;13.38;4.82;;;8.40;68.10;;;;;;4904054;29;20130;-80
2023/02/06 09:48:00;;;;;;;12.60;6.50;;;8.60;67.40;;;;;;4920950;29;20036;-79
2023/02/06 09:50:38;;;;;;;11.82;6.07;;;8.80;66.50;;;;;;4915742;29;20036;-78
2023/02/06 09:53:23;;;;;;;9.85;5.70;;;9.20;65.90;;;;;;4917677;29;20036;-78
2023/02/06 09:56:20;;;;;;;10.50;5.53;;;9.70;64.70;;;;;;4921230;29;20032;-79
2023/02/06 09:59:08;;;;;;;12.80;4.97;;;10.20;63.50;;;;;;4902716;29;20079;-79
2023/02/06 10:02:02;;;;;;;13.30;5.35;;;10.30;61.80;;;;;;4931865;29;20070;-79
2023/02/06 10:04:53;;;;;;;14.20;4.70;;;10.30;60.90;;;;;;4939311;29;20118;-79
2023/02/06 10:07:41;;;;;;;14.18;5.50;;;10.30;62.30;;;;;;4905851;29;20033;-79
2023/02/06 10:10:31;;;;;;;17.85;4.75;;;9.90;61.10;;;;;;4903344;29;20032;-79
2023/02/06 10:13:19;;;;;;;14.73;4.55;;;9.40;62.60;;;;;;4940362;29;20438;-78
2023/02/06 10:15:47;;;;;;;11.85;4.38;;;9.00;64.00;;;;;;4916863;29;20091;-79
2023/02/06 10:18:31;;;;;;;14.32;4.95;;;8.50;65.40;;;;;;4902593;29;20033;-79
2023/02/06 10:21:19;;;;;;;14.95;5.00;;;8.30;65.90;;;;;;4902475;29;20033;-79
2023/02/06 10:23:56;;;;;;;20.77;6.55;;;8.00;66.60;;;;;;4901672;29;20044;-79
2023/02/06 10:26:22;;;;;;;11.05;5.10;;;7.70;67.60;;;;;;4904020;29;20116;-79
2023/02/06 10:28:51;;;;;;;16.15;4.82;;;7.50;68.60;;;;;;4921432;29;20130;-79
2023/02/06 10:31:20;;;;;;;21.20;5.35;;;7.30;69.30;;;;;;4920230;29;20079;-79
2023/02/06 10:34:14;;;;;;;9.20;4.35;;;7.30;69.40;;;;;;4921125;29;20107;-79
2023/02/06 10:36:58;;;;;;;19.40;4.85;;;7.20;69.80;;;;;;4902255;29;20037;-79
2023/02/06 10:39:27;;;;;;;11.15;4.85;;;7.20;70.00;;;;;;4917635;29;20036;-79
2023/02/06 10:42:07;;;;;;;15.90;4.45;;;7.10;70.20;;;;;;4920825;29;20058;-79
2023/02/06 10:44:46;;;;;;;12.07;5.30;;;7.20;70.20;;;;;;4919744;29;20028;-79
2023/02/06 10:47:33;;;;;;;15.33;4.60;;;7.20;70.30;;;;;;4910420;29;20060;-79
2023/02/06 10:50:17;;;;;;;12.68;4.75;;;7.20;70.20;;;;;;4904065;29;20028;-78
2023/02/06 10:52:43;;;;;;;14.35;5.43;;;7.20;70.30;;;;;;4920847;29;20766;-78
2023/02/06 10:55:19;;;;;;;14.32;4.90;;;7.20;70.00;;;;;;4919137;29;20043;-79
2023/02/06 10:57:49;;;;;;;8.98;5.20;;;7.20;70.50;;;;;;4919936;29;20032;-78
2023/02/06 11:00:24;;;;;;;17.67;5.35;;;7.20;70.90;;;;;;4917162;29;20017;-79
2023/02/06 11:02:58;;;;;;;11.13;5.40;;;7.30;70.80;;;;;;4919290;29;20088;-79
2023/02/06 11:05:30;;;;;;;16.27;4.38;;;7.40;70.10;;;;;;4909915;29;20116;-79
2023/02/06 11:08:12;;;;;;;12.77;5.15;;;7.40;70.00;;;;;;4901680;29;20060;-79
2023/02/06 11:10:38;;;;;;;10.35;4.72;;;7.40;69.60;;;;;;4909794;29;20391;-79
2023/02/06 11:13:33;;;;;;;14.15;5.18;;;7.40;69.50;;;;;;4922423;29;20048;-79
2023/02/06 11:16:02;;;;;;;9.77;4.10;;;7.30;68.90;;;;;;4901487;29;20024;-78
2023/02/06 11:18:37;;;;;;;11.38;4.13;;;7.30;69.20;;;;;;4917639;29;20031;-78
2023/02/06 11:21:04;;;;;;;12.27;4.68;;;7.30;69.60;;;;;;4918393;29;20070;-78
2023/02/06 11:23:33;;;;;;;9.07;4.45;;;7.30;68.60;;;;;;4918875;29;20035;-78
2023/02/06 11:26:01;;;;;;;14.18;4.20;;;7.40;68.80;;;;;;4919872;29;20021;-79
2023/02/06 11:28:27;;;;;;;11.55;3.78;;;7.40;68.90;;;;;;4919487;29;20024;-79
2023/02/06 11:30:59;;;;;;;7.25;4.35;;;7.50;68.80;;;;;;4919442;29;20052;-79
2023/02/06 11:33:55;;;;;;;5.68;3.75;;;7.50;69.10;;;;;;4919770;29;20067;-80
2023/02/06 11:36:50;;;;;;;10.18;4.13;;;7.60;68.70;;;;;;4906914;29;20058;-78
2023/02/06 11:39:31;;;;;;;10.73;3.92;;;7.70;68.40;;;;;;4867062;29;20129;-79
2023/02/06 11:42:17;;;;;;;17.30;4.35;;;7.70;68.00;;;;;;4918854;29;20036;-78
2023/02/06 11:44:44;;;;;;;12.65;4.00;;;7.70;66.60;;;;;;4918525;29;20666;-77
2023/02/06 11:47:29;;;;;;;11.93;4.18;;;7.70;66.50;;;;;;4919785;29;20024;-77
2023/02/06 11:50:13;;;;;;;14.65;4.50;;;7.70;67.00;;;;;;4918795;29;20032;-77
2023/02/06 11:52:44;;;;;;;10.52;3.47;;;7.70;66.60;;;;;;4918564;29;20047;-77
2023/02/06 11:55:41;;;;;;;14.20;4.32;;;7.70;66.80;;;;;;4919446;29;20115;-78
2023/02/06 11:58:12;;;;;;;10.05;3.25;;;7.80;66.80;;;;;;4918814;29;20028;-77
2023/02/06 12:00:41;;;;;;;15.13;3.80;;;7.80;66.20;;;;;;4922756;29;20451;-77
2023/02/06 12:03:34;;;;;;;10.85;4.68;;;7.90;65.60;;;;;;4938081;29;20036;-77
2023/02/06 12:06:32;;;;;;;10.68;4.03;;;7.90;65.10;;;;;;4938444;29;20027;-77
2023/02/06 12:09:04;;;;;;;15.43;6.25;;;7.90;64.80;;;;;;4900689;29;20024;-77
2023/02/06 12:11:45;;;;;;;5.40;3.60;;;7.90;64.60;;;;;;4924333;29;20060;-77
2023/02/06 12:14:20;;;;;;;11.25;3.83;;;8.00;64.90;;;;;;4936996;29;20110;-78
2023/02/06 12:16:47;;;;;;;12.77;5.18;;;8.10;65.20;;;;;;4938233;29;20046;-77
2023/02/06 12:19:42;;;;;;;5.40;3.45;;;8.20;64.90;;;;;;4906770;29;20025;-77
2023/02/06 12:22:16;;;;;;;11.25;3.75;;;8.20;64.40;;;;;;4900268;29;20036;-77
2023/02/06 12:24:45;;;;;;;14.40;3.20;;;8.30;64.70;;;;;;4902197;29;20112;-78
2023/02/06 12:27:20;;;;;;;8.50;3.30;;;8.30;64.30;;;;;;4919283;29;20028;-78
2023/02/06 12:30:00;;;;;;;8.25;3.85;;;8.30;64.30;;;;;;4919074;29;20083;-77
2023/02/06 12:32:40;;;;;;;14.40;4.20;;;8.30;63.40;;;;;;4918909;29;20052;-78
2023/02/06 12:35:25;;;;;;;;;;;8.40;63.60;;;;;;4911859;29;20064;-76
2023/02/06 12:37:55;;;;;;;9.60;3.67;;;8.50;63.60;;;;;;4919590;29;19907;-77
2023/02/06 12:40:48;;;;;;;11.35;5.13;;;8.50;63.90;;;;;;4919384;29;20115;-76
2023/02/06 12:43:16;;;;;;;10.75;3.67;;;8.50;63.60;;;;;;4916301;29;20076;-76
2023/02/06 12:46:07;;;;;;;6.38;3.15;;;8.60;63.70;;;;;;4918988;29;20024;-76
2023/02/06 12:48:38;;;;;;;;;;;8.60;63.90;;;;;;4919274;29;20391;-76
2023/02/06 12:51:36;;;;;;;20.98;5.22;;;8.60;63.10;;;;;;4910358;29;20018;-77
2023/02/06 12:54:23;;;;;;;6.53;3.83;;;8.70;63.00;;;;;;4899919;29;20029;-76
2023/02/06 12:56:53;;;;;;;9.40;4.07;;;8.70;63.10;;;;;;4918986;29;20102;-76
2023/02/06 12:59:28;;;;;;;8.73;4.13;;;8.70;63.20;;;;;;4918874;29;20032;-76
2023/02/06 13:02:15;;;;;;;10.50;4.90;;;8.70;63.00;;;;;;4931935;29;20546;-76
2023/02/06 13:04:42;;;;;;;9.13;3.63;;;8.70;63.20;;;;;;4937475;29;20032;-77
2023/02/06 13:07:20;;;;;;;8.98;5.00;;;8.80;62.80;;;;;;4937569;29;20027;-76
2023/02/06 13:09:59;;;;;;;10.77;4.68;;;8.80;63.20;;;;;;4916418;29;20024;-76
2023/02/06 13:12:30;;;;;;;9.95;4.28;;;8.80;63.60;;;;;;4940478;29;20039;-76
2023/02/06 13:14:58;;;;;;;14.80;4.95;;;9.00;63.10;;;;;;4921454;29;20025;-76
2023/02/06 13:17:25;;;;;;;12.35;4.30;;;9.00;62.70;;;;;;4921603;29;20088;-76
2023/02/06 13:20:00;;;;;;;15.13;5.63;;;9.00;62.60;;;;;;4903525;29;20495;-76
2023/02/06 13:22:43;;;;;;;9.30;4.28;;;8.80;61.70;;;;;;4911425;29;20036;-76
2023/02/06 13:25:24;;;;;;;11.20;4.22;;;8.80;61.70;;;;;;4922080;29;20024;-76
2023/02/06 13:27:51;;;;;;;9.90;4.43;;;8.80;61.90;;;;;;4921501;29;20040;-76
2023/02/06 13:30:23;;;;;;;8.73;3.95;;;9.00;61.90;;;;;;4921894;29;20031;-77
2023/02/06 13:32:49;;;;;;;10.68;3.72;;;9.00;61.30;;;;;;4919080;29;20854;-76
2023/02/06 13:35:20;;;;;;;6.00;3.40;;;8.90;61.50;;;;;;4922021;29;20024;-76
2023/02/06 13:37:47;;;;;;;8.52;3.72;;;9.00;62.30;;;;;;4914363;29;20056;-77
2023/02/06 13:40:22;;;;;;;12.15;4.20;;;9.10;62.10;;;;;;4902937;29;20724;-76
2023/02/06 13:42:53;;;;;;;11.48;3.95;;;9.20;62.20;;;;;;4902816;29;20033;-76
2023/02/06 13:45:31;;;;;;;8.48;3.78;;;9.20;61.80;;;;;;4909855;29;20024;-76
2023/02/06 13:48:24;;;;;;;14.25;3.22;;;9.20;61.40;;;;;;4921807;29;20495;-76
2023/02/06 13:51:15;;;;;;;9.55;3.10;;;9.30;60.00;;;;;;4921454;29;20028;-76
2023/02/06 13:53:44;;;;;;;11.15;3.92;;;9.40;60.60;;;;;;4917948;29;20032;-76
2023/02/06 13:56:55;;;;;;;6.75;3.13;;;9.40;60.10;;;;;;4928932;29;20028;-76
2023/02/06 13:59:27;;;;;;;10.98;3.47;;;9.40;59.50;;;;;;4902507;29;20047;-76
2023/02/06 14:01:54;;;;;;;9.20;3.63;;;9.30;59.40;;;;;;4916818;29;20059;-76
2023/02/06 14:04:30;;;;;;;10.25;3.95;;;9.30;59.30;;;;;;4902570;29;20080;-76
2023/02/06 14:07:25;;;;;;;8.13;3.47;;;9.30;59.10;;;;;;4910362;29;20051;-76
2023/02/06 14:13:13;;;;;;;9.23;2.60;;;9.40;58.80;;;;;;4902423;29;20043;-76
2023/02/06 14:16:17;;;;;;;8.40;3.83;;;9.50;57.70;;;;;;4921128;29;20060;-77
2023/02/06 14:18:49;;;;;;;10.48;3.25;;;9.50;57.40;;;;;;4921160;29;20114;-76
2023/02/06 14:21:37;;;;;;;7.70;2.95;;;9.50;57.70;;;;;;4920382;29;20065;-77
2023/02/06 14:24:46;;;;;;;11.65;3.58;;;9.50;57.90;;;;;;4920899;29;20419;-76
2023/02/06 14:27:55;;;;;;;7.93;3.75;;;9.50;57.80;;;;;;4921187;29;20729;-76
2023/02/06 14:30:56;;;;;;;5.87;3.37;;;9.50;56.10;;;;;;4918070;29;20024;-76
2023/02/06 14:33:44;;;;;;;8.90;3.33;;;9.60;56.00;;;;;;4915017;29;20076;-76
2023/02/06 14:36:37;;;;;;;5.72;2.75;;;9.60;55.00;;;;;;4901900;29;20611;-76
2023/02/06 14:39:09;;;;;;;9.65;4.65;;;9.60;55.30;;;;;;4902545;29;20024;-76
2023/02/06 14:41:38;;;;;;;7.05;3.50;;;9.60;54.70;;;;;;4901791;29;20060;-77
2023/02/06 14:44:09;;;;;;;8.10;2.78;;;9.70;53.70;;;;;;4914692;29;20028;-77
2023/02/06 14:46:38;;;;;;;9.95;3.03;;;9.60;53.50;;;;;;4901914;29;20060;-76
2023/02/06 14:49:04;;;;;;;8.85;2.97;;;9.60;53.50;;;;;;4901693;29;20025;-77
2023/02/06 14:51:38;;;;;;;10.50;3.15;;;9.60;53.70;;;;;;4901872;29;20029;-76
2023/02/06 14:54:29;;;;;;;8.38;2.38;;;9.60;51.80;;;;;;4902025;29;20039;-77
2023/02/06 14:57:00;;;;;;;9.05;2.78;;;9.60;52.60;;;;;;4901754;29;20033;-77
2023/02/06 14:59:26;;;;;;;8.82;3.92;;;9.60;52.80;;;;;;4901483;29;20060;-76
2023/02/06 15:01:54;;;;;;;6.80;3.35;;;9.70;52.70;;;;;;4919203;29;20119;-76
2023/02/06 15:04:24;;;;;;;10.23;3.00;;;9.70;52.90;;;;;;4920276;29;20024;-76
2023/02/06 15:07:02;;;;;;;6.55;2.70;;;9.70;53.00;;;;;;4920365;29;20610;-76
2023/02/06 15:09:42;;;;;;;9.52;3.55;;;9.70;53.20;;;;;;4920340;29;20028;-77
2023/02/06 15:12:22;;;;;;;10.48;3.08;;;9.70;52.20;;;;;;4933221;29;20032;-77
2023/02/06 15:14:55;;;;;;;4.32;2.55;;;9.70;51.90;;;;;;4938368;29;20031;-77
2023/02/06 15:17:25;;;;;;;8.18;3.83;;;9.70;52.30;;;;;;4915210;29;20040;-77
2023/02/06 15:19:51;;;;;;;7.47;2.90;;;9.70;51.60;;;;;;4920248;29;20028;-77
2023/02/06 15:22:30;;;;;;;7.40;2.90;;;9.80;51.50;;;;;;4907821;29;20770;-76
2023/02/06 15:25:09;;;;;;;7.47;3.35;;;9.70;51.70;;;;;;4900969;29;20028;-77
2023/02/06 15:27:37;;;;;;;7.60;3.20;;;9.80;51.20;;;;;;4901307;29;20032;-76
2023/02/06 15:30:22;;;;;;;8.00;2.80;;;9.80;51.30;;;;;;4913854;29;20368;-77
2023/02/06 15:32:51;;;;;;;5.72;2.80;;;9.70;51.40;;;;;;4919347;29;20495;-76
2023/02/06 15:35:23;;;;;;;6.63;3.58;;;9.70;51.80;;;;;;4919436;29;20032;-78
2023/02/06 15:37:51;;;;;;;6.53;2.63;;;9.70;51.90;;;;;;4916839;29;20041;-76
2023/02/06 15:40:24;;;;;;;8.68;2.80;;;9.70;51.70;;;;;;4919076;29;20028;-77
2023/02/06 15:42:50;;;;;;;4.28;2.55;;;9.70;51.70;;;;;;4919563;29;20072;-78
2023/02/06 15:45:23;;;;;;;8.32;2.85;;;9.70;51.80;;;;;;4919234;29;20031;-77
2023/02/06 15:47:51;;;;;;;9.10;3.58;;;9.70;52.00;;;;;;4910608;29;20043;-77
2023/02/06 15:50:19;;;;;;;7.32;2.92;;;9.70;51.60;;;;;;4918980;29;20059;-75
2023/02/06 15:52:46;;;;;;;8.27;3.15;;;9.70;51.70;;;;;;4919222;29;20107;-75
2023/02/06 15:55:23;;;;;;;12.10;3.22;;;9.70;52.30;;;;;;4918805;29;20103;-76
2023/02/06 15:57:50;;;;;;;6.97;3.60;;;9.70;52.20;;;;;;4919135;29;20531;-75
2023/02/06 16:00:29;;;;;;;7.35;3.40;;;9.70;52.70;;;;;;4919604;29;20056;-76
2023/02/06 16:03:02;;;;;;;;;;;9.60;51.90;;;;;;4938604;29;20107;-75
2023/02/06 16:05:30;;;;;;;5.32;3.03;;;9.60;50.70;;;;;;4937316;29;20416;-76
2023/02/06 16:07:56;;;;;;;6.50;3.80;;;9.60;51.00;;;;;;4918808;29;20034;-76
2023/02/06 16:10:33;;;;;;;13.57;4.20;;;9.60;51.10;;;;;;4921128;29;20032;-76
2023/02/06 16:13:00;;;;;;;5.47;3.10;;;9.50;50.90;;;;;;4934417;29;20020;-76
2023/02/06 16:15:33;;;;;;;7.45;2.92;;;9.50;51.40;;;;;;4918869;29;20020;-76
2023/02/06 16:18:17;;;;;;;5.47;2.60;;;9.50;51.80;;;;;;4919296;29;20566;-76
2023/02/06 16:20:42;;;;;;;6.05;2.95;;;9.40;52.00;;;;;;4918847;29;20071;-75
2023/02/06 16:23:29;;;;;;;7.25;2.88;;;9.40;51.70;;;;;;4918894;29;20027;-76
2023/02/06 16:26:06;;;;;;;4.90;2.65;;;9.40;51.80;;;;;;4919038;29;20028;-76
2023/02/06 16:29:07;;;;;;;5.65;3.28;;;9.30;51.60;;;;;;4919375;29;20060;-75
2023/02/06 16:31:34;;;;;;;5.15;2.60;;;9.30;52.10;;;;;;4903005;29;20056;-75
2023/02/06 16:34:03;;;;;;;8.32;3.72;;;9.30;52.20;;;;;;4918624;29;20087;-75
2023/02/06 16:36:31;;;;;;;5.90;3.70;;;9.30;52.50;;;;;;4919145;29;20067;-75
2023/02/06 16:38:58;;;;;;;8.63;4.50;;;9.20;52.60;;;;;;4918648;29;20410;-75
2023/02/06 16:41:26;;;;;;;5.25;2.80;;;9.20;52.90;;;;;;4919134;29;20514;-74
2023/02/06 16:43:53;;;;;;;7.55;3.03;;;9.10;52.80;;;;;;4918538;29;20036;-75
2023/02/06 16:46:19;;;;;;;10.02;3.03;;;9.10;52.50;;;;;;4921262;29;20061;-75
2023/02/06 16:48:45;;;;;;;7.70;3.58;;;9.00;52.10;;;;;;4922344;29;20111;-75
2023/02/06 16:51:30;;;;;;;6.40;3.13;;;9.00;52.30;;;;;;4922623;29;20021;-75
2023/02/06 16:53:57;;;;;;;14.05;5.38;;;8.90;51.80;;;;;;4922559;29;20403;-75
2023/02/06 16:56:23;;;;;;;9.85;3.95;;;8.90;51.70;;;;;;4922669;29;20395;-75
2023/02/06 16:58:49;;;;;;;9.70;3.60;;;8.80;51.50;;;;;;4919129;29;20033;-75
2023/02/06 17:01:23;;;;;;;7.10;2.95;;;8.80;51.30;;;;;;4930555;29;20028;-75
2023/02/06 17:03:53;;;;;;;4.97;3.10;;;8.70;51.60;;;;;;4914367;29;20075;-77
2023/02/06 17:06:28;;;;;;;4.05;2.60;;;8.70;51.90;;;;;;4919972;29;20123;-75
2023/02/06 17:09:02;;;;;;;6.53;3.47;;;8.60;51.90;;;;;;4913099;29;20064;-79
2023/02/06 17:11:28;;;;;;;5.80;3.15;;;8.60;52.00;;;;;;4924644;29;20035;-83
2023/02/06 17:13:54;;;;;;;6.03;3.17;;;8.60;52.00;;;;;;4918704;29;20059;-78
2023/02/06 17:16:22;;;;;;;6.40;2.92;;;8.50;52.20;;;;;;4916907;29;20031;-78
2023/02/06 17:18:49;;;;;;;6.10;3.20;;;8.50;52.20;;;;;;4915830;29;20043;-77
2023/02/06 17:21:18;;;;;;;4.63;3.22;;;8.40;52.20;;;;;;4920258;29;20119;-79
2023/02/06 17:23:44;;;;;;;8.02;3.53;;;8.30;52.50;;;;;;4920030;29;20048;-76
2023/02/06 17:26:17;;;;;;;5.88;2.83;;;8.30;52.20;;;;;;4919734;29;20391;-77
2023/02/06 17:28:43;;;;;;;9.07;3.35;;;8.30;52.50;;;;;;4912801;29;20020;-75
2023/02/06 17:31:09;;;;;;;8.02;4.05;;;8.20;52.70;;;;;;4914566;29;20993;-76
2023/02/06 17:33:52;;;;;;;5.13;3.00;;;8.20;52.50;;;;;;4915854;29;20064;-77
2023/02/06 17:36:28;;;;;;;9.10;2.92;;;8.20;52.80;;;;;;4914119;29;20047;-75
2023/02/06 17:39:00;;;;;;;11.68;3.30;;;8.20;53.20;;;;;;4914100;29;20039;-76
2023/02/06 17:41:26;;;;;;;9.57;3.45;;;8.10;53.20;;;;;;4913090;29;20028;-75
2023/02/06 17:43:52;;;;;;;11.18;3.72;;;8.10;53.20;;;;;;4913945;29;20558;-76
2023/02/06 17:46:17;;;;;;;8.73;3.60;;;8.00;52.80;;;;;;4909122;29;20056;-76
2023/02/06 17:48:43;;;;;;;7.93;4.22;;;8.00;52.60;;;;;;4910190;29;20032;-76
2023/02/06 17:51:15;;;;;;;12.52;4.38;;;8.00;52.80;;;;;;4909044;29;20043;-78
2023/02/06 17:53:41;;;;;;;8.32;3.42;;;7.90;53.00;;;;;;4918318;29;20060;-84
2023/02/06 17:56:11;;;;;;;6.88;3.70;;;7.90;53.10;;;;;;4909145;29;20064;-78
2023/02/06 17:58:37;;;;;;;;;;;7.90;53.30;;;;;;4912261;29;20064;-80
2023/02/06 18:01:03;;;;;;;9.82;4.10;;;7.80;53.00;;;;;;4914300;29;20382;-77
2023/02/06 18:03:29;;;;;;;13.15;5.13;;;7.80;52.80;;;;;;4913936;29;20119;-77
2023/02/06 18:05:59;;;;;;;11.90;4.85;;;7.80;53.00;;;;;;4912900;29;20458;-81
2023/02/06 18:08:26;;;;;;;6.40;4.03;;;7.70;53.40;;;;;;4922376;29;20020;-79
2023/02/06 18:10:52;;;;;;;5.68;3.75;;;7.70;53.00;;;;;;4921054;29;20123;-79
2023/02/06 18:13:19;;;;;;;11.15;4.85;;;7.70;53.10;;;;;;4910363;29;20032;-79
2023/02/06 18:15:51;;;;;;;10.15;4.97;;;7.60;53.00;;;;;;4925327;29;20042;-79
2023/02/06 18:18:17;;;;;;;8.32;5.25;;;7.50;53.40;;;;;;4914216;29;20059;-77
2023/02/06 18:20:44;;;;;;;8.95;5.28;;;7.50;53.30;;;;;;4914133;29;20034;-77
2023/02/06 18:23:10;;;;;;;8.80;4.90;;;7.50;53.60;;;;;;4928136;29;20031;-76
2023/02/06 18:25:39;;;;;;;10.55;5.40;;;7.40;53.70;;;;;;4916984;29;20028;-77
2023/02/06 18:28:04;;;;;;;13.15;4.47;;;7.30;54.20;;;;;;4923388;29;20035;-81
2023/02/06 18:30:50;;;;;;;9.90;4.63;;;7.30;53.90;;;;;;4920097;29;20053;-77
2023/02/06 18:33:16;;;;;;;7.70;4.82;;;7.30;53.80;;;;;;4910080;29;20570;-76
2023/02/06 18:35:44;;;;;;;10.32;5.30;;;7.30;54.40;;;;;;4927348;29;20734;-75
2023/02/06 18:38:13;;;;;;;8.20;5.32;;;7.20;54.60;;;;;;4926747;29;20039;-76
2023/02/06 18:40:40;;;;;;;10.10;6.30;;;7.20;54.20;;;;;;4924509;29;20111;-78
2023/02/06 18:43:06;;;;;;;8.63;5.05;;;7.20;54.00;;;;;;4918728;29;20091;-77
2023/02/06 18:45:35;;;;;;;12.85;6.68;;;7.20;54.10;;;;;;4922283;29;20059;-79
2023/02/06 18:48:04;;;;;;;15.13;7.03;;;7.10;55.00;;;;;;4925830;29;20063;-78
2023/02/06 18:50:30;;;;;;;19.00;8.98;;;7.10;54.90;;;;;;4921831;29;20080;-76
2023/02/06 18:52:56;;;;;;;15.90;8.52;;;7.00;54.70;;;;;;4917831;29;20025;-76